createdAt,value
2022-10-06T00:00:26.384Z,14.60
2022-10-06T00:02:52.965Z,14.60
2022-10-06T00:05:19.560Z,14.60
2022-10-06T00:07:46.123Z,14.60
2022-10-06T00:10:12.831Z,14.60
2022-10-06T00:12:43.648Z,14.60
2022-10-06T00:15:11.536Z,14.60
2022-10-06T00:17:38.232Z,14.60
2022-10-06T00:20:05.024Z,14.50
2022-10-06T00:22:38.765Z,14.50
2022-10-06T00:25:05.930Z,14.40
2022-10-06T00:27:33.523Z,14.40
2022-10-06T00:30:00.088Z,14.40
2022-10-06T00:32:26.609Z,14.40
2022-10-06T00:34:53.286Z,14.30
2022-10-06T00:37:19.814Z,14.20
2022-10-06T00:39:46.311Z,14.20
2022-10-06T00:42:28.937Z,14.20
2022-10-06T00:44:57.253Z,14.20
2022-10-06T00:47:24.586Z,14.10
2022-10-06T00:49:51.343Z,14.10
2022-10-06T00:52:19.346Z,14.00
2022-10-06T00:54:46.134Z,14.00
2022-10-06T00:57:12.990Z,14.00
2022-10-06T00:59:39.881Z,14.00
2022-10-06T01:02:10.449Z,14.00
2022-10-06T01:04:39.952Z,14.00
2022-10-06T01:07:07.623Z,14.00
2022-10-06T01:09:34.622Z,13.90
2022-10-06T01:12:04.177Z,13.90
2022-10-06T01:14:31.353Z,13.80
2022-10-06T01:16:59.722Z,13.70
2022-10-06T01:19:35.753Z,13.70
2022-10-06T01:22:05.749Z,13.70
2022-10-06T01:24:32.802Z,13.80
2022-10-06T01:27:00.678Z,13.80
2022-10-06T01:29:27.563Z,13.70
2022-10-06T01:31:54.174Z,13.70
2022-10-06T01:34:20.692Z,13.70
2022-10-06T01:36:47.204Z,13.70
2022-10-06T01:39:13.710Z,13.70
2022-10-06T01:41:40.221Z,13.80
2022-10-06T01:44:06.820Z,13.80
2022-10-06T01:46:33.427Z,13.80
2022-10-06T01:49:00.158Z,13.80
2022-10-06T01:51:26.679Z,13.80
2022-10-06T01:53:53.197Z,13.80
2022-10-06T01:56:21.092Z,13.90
2022-10-06T01:58:48.281Z,13.90
2022-10-06T02:01:14.924Z,13.90
2022-10-06T02:03:41.524Z,13.90
2022-10-06T02:06:08.710Z,13.90
2022-10-06T02:08:35.489Z,13.80
2022-10-06T02:11:05.782Z,13.80
2022-10-06T02:13:32.318Z,13.80
2022-10-06T02:15:58.881Z,13.80
2022-10-06T02:18:26.476Z,13.70
2022-10-06T02:20:53.394Z,13.70
2022-10-06T02:23:19.915Z,13.60
2022-10-06T02:25:46.486Z,13.60
2022-10-06T02:28:13.027Z,13.50
2022-10-06T02:30:39.744Z,13.50
2022-10-06T02:33:06.343Z,13.40
2022-10-06T02:35:32.988Z,13.50
2022-10-06T02:37:59.531Z,13.40
2022-10-06T02:40:26.026Z,13.50
2022-10-06T02:42:52.857Z,13.40
2022-10-06T02:45:19.486Z,13.30
2022-10-06T02:47:46.478Z,13.30
2022-10-06T02:50:13.703Z,13.20
2022-10-06T02:52:42.737Z,13.20
2022-10-06T02:55:09.738Z,13.10
2022-10-06T02:57:36.277Z,13.10
2022-10-06T03:00:03.928Z,13.10
2022-10-06T03:02:31.110Z,13.10
2022-10-06T03:04:57.772Z,13.10
2022-10-06T03:10:46.386Z,13.30
2022-10-06T03:13:12.917Z,13.40
2022-10-06T03:15:39.439Z,13.40
2022-10-06T03:18:06.422Z,13.40
2022-10-06T03:20:32.951Z,13.40
2022-10-06T03:22:59.465Z,13.40
2022-10-06T03:25:25.980Z,13.50
2022-10-06T03:27:52.520Z,13.50
2022-10-06T03:30:19.223Z,13.50
2022-10-06T03:32:45.854Z,13.40
2022-10-06T03:35:12.378Z,13.40
2022-10-06T03:37:39.143Z,13.40
2022-10-06T03:40:05.988Z,13.40
2022-10-06T03:42:32.481Z,13.40
2022-10-06T03:44:59.115Z,13.40
2022-10-06T03:47:26.155Z,13.40
2022-10-06T03:49:52.671Z,13.40
2022-10-06T03:52:23.590Z,13.40
2022-10-06T03:54:52.339Z,13.40
2022-10-06T03:57:18.860Z,13.50
2022-10-06T03:59:45.454Z,13.50
2022-10-06T04:02:12.053Z,13.50
2022-10-06T04:04:38.617Z,13.50
2022-10-06T04:07:05.191Z,13.60
2022-10-06T04:09:31.795Z,13.60
2022-10-06T04:11:58.386Z,13.60
2022-10-06T04:14:25.113Z,13.60
2022-10-06T04:16:51.635Z,13.70
2022-10-06T04:19:18.705Z,13.70
2022-10-06T04:21:46.796Z,13.70
2022-10-06T04:24:13.590Z,13.60
2022-10-06T04:26:41.571Z,13.60
2022-10-06T04:29:08.213Z,13.70
2022-10-06T04:31:37.008Z,13.70
2022-10-06T04:34:03.951Z,13.70
2022-10-06T04:36:32.171Z,13.70
2022-10-06T04:38:59.992Z,13.70
2022-10-06T04:41:28.221Z,13.70
2022-10-06T04:43:54.890Z,13.70
2022-10-06T04:46:42.228Z,13.70
2022-10-06T04:49:09.274Z,13.70
2022-10-06T04:51:36.331Z,13.70
2022-10-06T04:54:03.646Z,13.70
2022-10-06T04:56:30.749Z,13.70
2022-10-06T04:58:57.898Z,13.70
2022-10-06T05:01:27.321Z,13.70
2022-10-06T05:03:55.945Z,13.70
2022-10-06T05:06:23.975Z,13.70
2022-10-06T05:08:51.919Z,13.70
2022-10-06T05:11:21.363Z,13.80
2022-10-06T05:13:53.870Z,13.90
2022-10-06T05:16:21.234Z,14.00
2022-10-06T05:18:48.092Z,14.00
2022-10-06T05:21:18.974Z,14.10
2022-10-06T05:23:46.062Z,14.10
2022-10-06T05:26:13.639Z,14.10
2022-10-06T05:28:40.453Z,14.20
2022-10-06T05:31:15.086Z,14.20
2022-10-06T05:33:41.934Z,14.10
2022-10-06T05:36:12.474Z,14.10
2022-10-06T05:38:39.305Z,14.20
2022-10-06T05:41:13.289Z,14.30
2022-10-06T05:43:39.990Z,14.40
2022-10-06T05:46:08.054Z,14.40
2022-10-06T05:48:34.753Z,14.50
2022-10-06T05:51:05.826Z,14.50
2022-10-06T05:53:33.693Z,14.40
2022-10-06T05:56:06.272Z,14.50
2022-10-06T05:58:33.974Z,14.50
2022-10-06T06:01:07.877Z,14.60
2022-10-06T06:03:34.416Z,14.70
2022-10-06T06:06:00.931Z,14.70
2022-10-06T06:08:27.969Z,14.70
2022-10-06T06:10:54.786Z,14.70
2022-10-06T06:13:21.860Z,14.70
2022-10-06T06:16:00.481Z,14.70
2022-10-06T06:18:28.191Z,14.70
2022-10-06T06:20:56.259Z,14.80
2022-10-06T06:23:22.917Z,14.70
2022-10-06T06:26:02.460Z,14.60
2022-10-06T06:28:30.132Z,14.20
2022-10-06T06:31:02.508Z,13.90
2022-10-06T06:33:29.933Z,13.50
2022-10-06T06:35:57.361Z,13.30
2022-10-06T06:38:23.883Z,13.20
2022-10-06T06:40:50.902Z,13.00
2022-10-06T06:43:17.499Z,12.90
2022-10-06T06:45:44.103Z,12.80
2022-10-06T06:48:13.974Z,12.70
2022-10-06T06:50:41.034Z,12.70
2022-10-06T06:53:07.621Z,12.80
2022-10-06T06:55:34.357Z,12.80
2022-10-06T06:58:00.912Z,12.70
2022-10-06T07:00:27.436Z,12.80
2022-10-06T07:03:00.527Z,12.70
2022-10-06T07:05:27.076Z,12.80
2022-10-06T07:07:53.613Z,12.80
2022-10-06T07:10:20.157Z,12.80
2022-10-06T07:12:46.667Z,12.90
2022-10-06T07:15:32.235Z,13.00
2022-10-06T07:18:21.168Z,13.00
2022-10-06T07:21:06.231Z,13.00
2022-10-06T07:23:51.225Z,13.00
2022-10-06T07:26:17.747Z,13.00
2022-10-06T07:28:44.259Z,13.00
2022-10-06T07:31:10.920Z,13.00
2022-10-06T07:33:39.021Z,13.00
2022-10-06T07:36:05.624Z,13.00
2022-10-06T07:38:32.318Z,13.00
2022-10-06T07:43:46.907Z,13.00
2022-10-06T07:46:14.026Z,13.00
2022-10-06T07:48:40.621Z,13.00
2022-10-06T07:51:15.140Z,13.00
2022-10-06T07:53:42.451Z,13.10
2022-10-06T07:56:09.050Z,13.10
2022-10-06T07:58:37.322Z,13.20
2022-10-06T08:01:09.035Z,13.20
2022-10-06T08:03:39.394Z,13.30
2022-10-06T08:06:06.546Z,13.30
2022-10-06T08:08:36.197Z,13.40
2022-10-06T08:11:02.775Z,13.40
2022-10-06T08:13:32.157Z,13.40
2022-10-06T08:16:09.239Z,13.50
2022-10-06T08:18:51.288Z,13.60
2022-10-06T08:21:19.417Z,13.60
2022-10-06T08:23:46.646Z,13.80
2022-10-06T08:26:13.829Z,13.90
2022-10-06T08:28:43.272Z,13.90
2022-10-06T08:31:11.551Z,13.90
2022-10-06T08:33:38.777Z,14.10
2022-10-06T08:36:08.538Z,14.20
2022-10-06T08:38:38.353Z,14.30
2022-10-06T08:41:24.904Z,14.40
2022-10-06T08:43:54.471Z,14.50
2022-10-06T08:46:24.661Z,14.60
2022-10-06T08:48:51.566Z,14.60
2022-10-06T08:51:25.253Z,14.60
2022-10-06T08:53:58.606Z,14.60
2022-10-06T08:56:27.349Z,14.60
2022-10-06T08:58:55.638Z,14.60
2022-10-06T09:01:23.945Z,14.70
2022-10-06T09:03:52.469Z,14.80
2022-10-06T09:06:18.979Z,14.70
2022-10-06T09:08:55.346Z,14.70
2022-10-06T09:11:21.864Z,14.80
2022-10-06T09:13:53.755Z,15.00
2022-10-06T09:16:28.195Z,15.00
2022-10-06T09:19:08.571Z,15.00
2022-10-06T09:21:40.715Z,15.10
2022-10-06T09:24:11.301Z,15.10
2022-10-06T09:26:43.255Z,15.20
2022-10-06T09:29:10.025Z,15.20
2022-10-06T09:31:37.870Z,15.20
2022-10-06T09:34:12.514Z,15.20
2022-10-06T09:37:01.995Z,15.20
2022-10-06T09:39:32.994Z,15.20
2022-10-06T09:42:04.295Z,15.30
2022-10-06T09:44:34.857Z,15.20
2022-10-06T09:47:01.463Z,15.20
2022-10-06T09:49:31.259Z,15.10
2022-10-06T09:52:18.309Z,15.10
2022-10-06T09:54:45.199Z,15.00
2022-10-06T09:57:26.333Z,14.90
2022-10-06T09:59:52.913Z,14.80
2022-10-06T10:02:27.193Z,14.70
2022-10-06T10:04:54.808Z,14.70
2022-10-06T10:07:25.393Z,14.70
2022-10-06T10:09:52.784Z,14.80
2022-10-06T10:12:25.252Z,14.70
2022-10-06T10:14:52.510Z,14.70
2022-10-06T10:17:36.837Z,14.70
2022-10-06T10:20:05.509Z,14.70
2022-10-06T10:22:36.761Z,14.70
2022-10-06T10:25:21.404Z,14.70
2022-10-06T10:27:52.077Z,14.70
2022-10-06T10:30:18.617Z,14.70
2022-10-06T10:32:51.869Z,14.70
2022-10-06T10:35:18.452Z,14.60
2022-10-06T10:38:02.146Z,14.70
2022-10-06T10:40:34.098Z,14.70
2022-10-06T10:43:00.599Z,14.80
2022-10-06T10:45:32.189Z,14.90
2022-10-06T10:47:59.755Z,15.00
2022-10-06T10:50:31.935Z,15.10
2022-10-06T10:53:01.761Z,15.00
2022-10-06T10:55:35.921Z,15.10
2022-10-06T10:58:16.829Z,15.10
2022-10-06T11:00:46.214Z,15.10
2022-10-06T11:03:12.979Z,15.00
2022-10-06T11:05:39.472Z,14.90
2022-10-06T11:08:12.280Z,15.00
2022-10-06T11:10:43.374Z,14.90
2022-10-06T11:13:12.863Z,14.90
2022-10-06T11:15:43.297Z,14.90
2022-10-06T11:18:26.117Z,14.80
2022-10-06T11:20:52.648Z,14.80
2022-10-06T11:23:33.213Z,14.70
2022-10-06T11:26:04.954Z,14.80
2022-10-06T11:28:37.234Z,14.80
2022-10-06T11:31:11.239Z,14.90
2022-10-06T11:33:58.159Z,14.90
2022-10-06T11:36:34.943Z,14.90
2022-10-06T11:39:05.936Z,14.90
2022-10-06T11:41:36.283Z,15.00
2022-10-06T11:44:13.607Z,15.00
2022-10-06T11:46:57.635Z,15.10
2022-10-06T11:49:32.336Z,15.20
2022-10-06T11:52:11.442Z,15.20
2022-10-06T11:54:44.270Z,15.30
2022-10-06T11:57:25.117Z,15.30
2022-10-06T11:59:54.840Z,15.20
2022-10-06T12:02:30.700Z,15.10
2022-10-06T12:05:28.515Z,15.00
2022-10-06T12:07:56.096Z,15.00
2022-10-06T12:10:28.815Z,15.00
2022-10-06T12:13:07.023Z,15.00
2022-10-06T12:18:32.656Z,14.80
2022-10-06T12:21:08.245Z,14.80
2022-10-06T12:23:40.785Z,14.80
2022-10-06T12:26:17.255Z,14.90
2022-10-06T12:28:51.268Z,14.90
2022-10-06T12:31:20.988Z,14.80
2022-10-06T12:33:48.347Z,14.80
2022-10-06T12:36:24.052Z,14.80
2022-10-06T12:39:28.973Z,14.80
2022-10-06T12:41:58.644Z,14.90
2022-10-06T12:44:25.157Z,14.90
2022-10-06T12:46:51.832Z,15.00
2022-10-06T12:49:38.917Z,14.90
2022-10-06T12:52:07.884Z,14.90
2022-10-06T12:54:43.253Z,14.90
2022-10-06T12:57:15.887Z,14.90
2022-10-06T12:59:42.686Z,15.10
2022-10-06T13:02:19.860Z,15.10
2022-10-06T13:04:59.278Z,15.20
2022-10-06T13:07:28.748Z,15.20
2022-10-06T13:10:10.097Z,15.20
2022-10-06T13:12:37.501Z,15.10
2022-10-06T13:15:22.195Z,15.20
2022-10-06T13:17:51.612Z,15.20
2022-10-06T13:20:22.958Z,15.20
2022-10-06T13:22:59.947Z,15.10
2022-10-06T13:25:31.048Z,15.20
2022-10-06T13:27:57.664Z,15.20
2022-10-06T13:30:24.380Z,15.10
2022-10-06T13:32:54.551Z,15.20
2022-10-06T13:35:23.433Z,15.20
2022-10-06T13:37:51.007Z,15.10
2022-10-06T13:40:43.477Z,15.10
2022-10-06T13:43:18.402Z,15.20
2022-10-06T13:45:45.604Z,15.20
2022-10-06T13:48:15.125Z,15.30
2022-10-06T13:50:45.527Z,15.30
2022-10-06T13:53:25.544Z,15.30
2022-10-06T13:55:52.515Z,15.30
2022-10-06T13:58:19.848Z,15.40
2022-10-06T14:00:50.013Z,15.30
2022-10-06T14:03:21.575Z,15.30
2022-10-06T14:05:48.395Z,15.20
2022-10-06T14:08:19.933Z,15.10
2022-10-06T14:10:48.368Z,15.10
2022-10-06T14:13:27.319Z,15.20
2022-10-06T14:16:08.258Z,15.30
2022-10-06T14:18:34.991Z,15.30
2022-10-06T14:21:16.161Z,15.20
2022-10-06T14:23:49.877Z,15.10
2022-10-06T14:26:17.557Z,15.20
2022-10-06T14:28:48.523Z,15.20
2022-10-06T14:31:15.522Z,15.20
2022-10-06T14:33:42.453Z,15.30
2022-10-06T14:36:16.507Z,15.30
2022-10-06T14:38:43.080Z,15.20
2022-10-06T14:41:09.575Z,15.20
2022-10-06T14:43:36.100Z,15.10
2022-10-06T14:46:06.220Z,15.00
2022-10-06T14:48:33.017Z,14.90
2022-10-06T14:51:02.124Z,14.80
2022-10-06T14:53:29.088Z,14.90
2022-10-06T14:56:00.862Z,15.00
2022-10-06T14:58:27.454Z,15.00
2022-10-06T15:00:53.983Z,15.00
2022-10-06T15:03:20.743Z,14.90
2022-10-06T15:06:05.940Z,14.80
2022-10-06T15:08:32.643Z,14.80
2022-10-06T15:10:59.182Z,14.70
2022-10-06T15:13:25.729Z,14.70
2022-10-06T15:15:57.038Z,14.80
2022-10-06T15:18:23.609Z,14.80
2022-10-06T15:20:50.153Z,14.80
2022-10-06T15:27:04.963Z,14.60
2022-10-06T15:29:31.995Z,14.60
2022-10-06T15:32:00.186Z,14.50
2022-10-06T15:34:27.687Z,14.40
2022-10-06T15:36:55.371Z,14.30
2022-10-06T15:39:23.676Z,14.30
2022-10-06T15:41:50.683Z,14.30
2022-10-06T15:44:18.096Z,14.30
2022-10-06T15:46:46.519Z,14.20
2022-10-06T15:49:16.999Z,14.20
2022-10-06T15:51:49.167Z,14.10
2022-10-06T15:54:20.248Z,14.00
2022-10-06T15:56:47.781Z,14.00
2022-10-06T15:59:15.194Z,13.90
2022-10-06T16:01:47.069Z,13.80
2022-10-06T16:04:23.307Z,13.80
2022-10-06T16:06:50.793Z,13.70
2022-10-06T16:09:18.728Z,13.60
2022-10-06T16:11:46.188Z,13.50
2022-10-06T16:14:13.284Z,13.40
2022-10-06T16:16:43.505Z,13.20
2022-10-06T16:19:10.705Z,13.10
2022-10-06T16:21:37.261Z,13.00
2022-10-06T16:24:03.931Z,12.90
2022-10-06T16:26:30.645Z,12.80
2022-10-06T16:28:57.194Z,12.70
2022-10-06T16:31:23.985Z,12.70
2022-10-06T16:33:50.773Z,12.70
2022-10-06T16:36:17.681Z,12.60
2022-10-06T16:38:44.261Z,12.50
2022-10-06T16:41:10.859Z,12.40
2022-10-06T16:43:41.982Z,12.30
2022-10-06T16:46:12.840Z,12.20
2022-10-06T16:48:40.825Z,12.10
2022-10-06T16:51:12.271Z,12.10
2022-10-06T16:53:49.153Z,12.00
2022-10-06T16:56:17.543Z,11.90
2022-10-06T16:58:45.625Z,11.80
2022-10-06T17:01:13.418Z,11.60
2022-10-06T17:03:40.124Z,11.50
2022-10-06T17:06:08.516Z,11.50
2022-10-06T17:08:35.792Z,11.40
2022-10-06T17:11:07.184Z,11.40
2022-10-06T17:13:34.376Z,11.40
2022-10-06T17:16:02.318Z,11.30
2022-10-06T17:18:28.961Z,11.20
2022-10-06T17:20:59.019Z,11.20
2022-10-06T17:23:26.356Z,11.10
2022-10-06T17:26:03.431Z,11.10
2022-10-06T17:28:30.395Z,11.00
2022-10-06T17:30:59.346Z,11.00
2022-10-06T17:33:27.102Z,10.90
2022-10-06T17:35:53.667Z,10.70
2022-10-06T17:38:20.488Z,10.70
2022-10-06T17:40:47.023Z,10.60
2022-10-06T17:43:13.577Z,10.60
2022-10-06T17:45:40.252Z,10.60
2022-10-06T17:48:06.916Z,10.50
2022-10-06T17:50:33.479Z,10.40
2022-10-06T17:52:59.988Z,10.40
2022-10-06T17:55:28.013Z,10.40
2022-10-06T17:57:58.448Z,10.40
2022-10-06T18:00:25.352Z,10.40
2022-10-06T18:02:52.350Z,10.30
2022-10-06T18:05:19.265Z,10.20
2022-10-06T18:07:45.981Z,10.20
2022-10-06T18:10:31.064Z,10.10
2022-10-06T18:12:57.732Z,10.00
2022-10-06T18:15:24.521Z,9.90
2022-10-06T18:17:52.218Z,9.90
2022-10-06T18:20:19.329Z,9.80
2022-10-06T18:22:45.917Z,9.80
2022-10-06T18:25:16.641Z,9.80
2022-10-06T18:27:43.910Z,9.80
2022-10-06T18:30:10.823Z,9.80
2022-10-06T18:38:10.481Z,9.80
2022-10-06T18:40:37.139Z,9.70
2022-10-06T18:43:03.707Z,9.70
2022-10-06T18:45:49.165Z,9.60
2022-10-06T18:48:34.139Z,9.40
2022-10-06T18:51:01.400Z,9.30
2022-10-06T18:53:29.434Z,9.30
2022-10-06T18:55:56.781Z,9.40
2022-10-06T18:58:23.540Z,9.40
2022-10-06T19:00:50.108Z,9.40
2022-10-06T19:03:16.691Z,9.30
2022-10-06T19:05:50.894Z,9.20
2022-10-06T19:08:17.495Z,9.10
2022-10-06T19:11:04.072Z,9.20
2022-10-06T19:13:30.707Z,9.20
2022-10-06T19:15:57.679Z,9.10
2022-10-06T19:18:24.243Z,9.10
2022-10-06T19:20:51.193Z,9.00
2022-10-06T19:23:17.744Z,8.90
2022-10-06T19:25:44.415Z,8.80
2022-10-06T19:28:11.379Z,8.70
2022-10-06T19:30:38.051Z,8.70
2022-10-06T19:33:04.842Z,8.70
2022-10-06T19:35:31.438Z,8.80
2022-10-06T19:37:58.605Z,8.80
2022-10-06T19:40:25.134Z,8.70
2022-10-06T19:42:51.836Z,8.80
2022-10-06T19:45:19.581Z,8.80
2022-10-06T19:47:47.093Z,8.80
2022-10-06T19:50:14.337Z,8.70
2022-10-06T19:52:41.626Z,8.60
2022-10-06T19:55:08.187Z,8.60
2022-10-06T19:57:34.915Z,8.60
2022-10-06T20:00:01.584Z,8.60
2022-10-06T20:02:28.940Z,8.50
2022-10-06T20:04:56.141Z,8.50
2022-10-06T20:07:25.471Z,8.60
2022-10-06T20:09:52.064Z,8.50
2022-10-06T20:12:22.244Z,8.60
2022-10-06T20:14:51.103Z,8.60
2022-10-06T20:17:17.982Z,8.50
2022-10-06T20:19:45.965Z,8.50
2022-10-06T20:22:12.984Z,8.40
2022-10-06T20:24:39.637Z,8.30
2022-10-06T20:27:06.223Z,8.20
2022-10-06T20:29:33.173Z,8.20
2022-10-06T20:31:59.741Z,8.20
2022-10-06T20:34:31.594Z,8.10
2022-10-06T20:37:00.064Z,8.10
2022-10-06T20:39:45.271Z,8.10
2022-10-06T20:42:15.297Z,8.20
2022-10-06T20:44:42.792Z,8.20
2022-10-06T20:47:10.346Z,8.10
2022-10-06T20:49:37.213Z,8.00
2022-10-06T20:52:04.968Z,8.00
2022-10-06T20:54:34.735Z,8.10
2022-10-06T20:57:05.558Z,8.10
2022-10-06T20:59:32.256Z,8.10
2022-10-06T21:02:02.758Z,8.00
2022-10-06T21:04:29.497Z,7.90
2022-10-06T21:06:57.145Z,7.80
2022-10-06T21:09:24.583Z,7.80
2022-10-06T21:11:51.413Z,7.80
2022-10-06T21:14:18.231Z,7.80
2022-10-06T21:16:46.414Z,7.80
2022-10-06T21:19:14.571Z,7.90
2022-10-06T21:21:44.378Z,7.90
2022-10-06T21:24:11.194Z,7.90
2022-10-06T21:26:42.547Z,7.90
2022-10-06T21:29:14.209Z,7.90
2022-10-06T21:31:41.930Z,7.80
2022-10-06T21:34:08.750Z,7.70
2022-10-06T21:36:35.386Z,7.60
2022-10-06T21:39:04.629Z,7.60
2022-10-06T21:41:32.549Z,7.50
2022-10-06T21:44:00.792Z,7.50
2022-10-06T21:46:29.237Z,7.40
2022-10-06T21:48:56.823Z,7.40
2022-10-06T21:51:26.763Z,7.40
2022-10-06T21:53:53.842Z,7.50
2022-10-06T21:56:21.409Z,7.50
2022-10-06T21:58:51.457Z,7.50
2022-10-06T22:01:19.264Z,7.40
2022-10-06T22:03:46.470Z,7.40
2022-10-06T22:06:16.876Z,7.30
2022-10-06T22:08:46.210Z,7.30
2022-10-06T22:11:14.558Z,7.30
2022-10-06T22:13:42.489Z,7.20
2022-10-06T22:16:10.103Z,7.30
2022-10-06T22:18:37.594Z,7.20
2022-10-06T22:21:11.486Z,7.10
2022-10-06T22:23:38.870Z,7.00
2022-10-06T22:26:06.077Z,7.00
2022-10-06T22:28:32.850Z,7.10
2022-10-06T22:31:06.928Z,7.10
2022-10-06T22:33:34.020Z,7.20
2022-10-06T22:36:00.939Z,7.20
2022-10-06T22:38:27.869Z,7.20
2022-10-06T22:40:59.141Z,7.30
2022-10-06T22:43:25.797Z,7.30
2022-10-06T22:45:52.545Z,7.20
2022-10-06T22:48:19.198Z,7.10
2022-10-06T22:50:46.703Z,7.00
2022-10-06T22:53:14.463Z,7.00
2022-10-06T22:55:41.133Z,7.00
2022-10-06T22:58:07.785Z,7.00
2022-10-06T23:00:37.249Z,6.90
2022-10-06T23:03:04.687Z,6.90
2022-10-06T23:05:31.839Z,6.90
2022-10-06T23:07:58.653Z,6.80
2022-10-06T23:10:25.517Z,6.80
2022-10-06T23:12:56.103Z,6.80
2022-10-06T23:15:23.289Z,6.90
2022-10-06T23:17:50.053Z,6.90
2022-10-06T23:20:16.809Z,6.90
2022-10-06T23:22:43.681Z,7.00
2022-10-06T23:25:10.342Z,7.00
2022-10-06T23:27:37.075Z,7.00
2022-10-06T23:30:04.658Z,7.00
2022-10-06T23:32:31.753Z,6.90
2022-10-06T23:34:58.452Z,6.90
2022-10-06T23:37:25.074Z,6.90
2022-10-06T23:39:52.706Z,6.80
2022-10-06T23:42:19.362Z,6.80
2022-10-06T23:44:46.033Z,6.80
2022-10-06T23:47:12.772Z,6.70
2022-10-06T23:49:41.352Z,6.60
2022-10-06T23:52:07.988Z,6.60
2022-10-06T23:54:34.630Z,6.50
2022-10-06T23:57:01.392Z,6.60
2022-10-06T23:59:29.498Z,6.60
